createdAt,value
2022-08-17T00:00:42.987Z,91.10
2022-08-17T00:07:34.664Z,91.20
2022-08-17T00:14:36.284Z,91.40
2022-08-17T00:22:31.782Z,91.60
2022-08-17T00:28:59.942Z,91.80
2022-08-17T00:36:01.051Z,91.80
2022-08-17T00:43:12.496Z,91.70
2022-08-17T00:50:16.921Z,91.60
2022-08-17T00:57:25.986Z,91.70
2022-08-17T01:04:29.181Z,91.70
2022-08-17T01:11:32.364Z,91.80
2022-08-17T01:18:33.638Z,91.80
2022-08-17T01:25:35.066Z,91.90
2022-08-17T01:32:35.849Z,91.80
2022-08-17T01:39:51.463Z,91.90
2022-08-17T01:46:51.863Z,92.10
2022-08-17T01:53:57.535Z,92.20
2022-08-17T02:01:00.777Z,92.30
2022-08-17T02:08:03.016Z,92.40
2022-08-17T02:15:07.676Z,92.50
2022-08-17T02:22:08.355Z,92.60
2022-08-17T02:29:08.854Z,92.70
2022-08-17T02:36:09.984Z,92.90
2022-08-17T02:43:10.482Z,93.00
2022-08-17T02:50:13.305Z,93.30
2022-08-17T02:57:13.346Z,93.40
2022-08-17T03:04:13.722Z,93.60
2022-08-17T03:11:13.952Z,93.70
2022-08-17T03:18:18.920Z,93.90
2022-08-17T03:25:29.414Z,94.10
2022-08-17T03:32:29.550Z,94.20
2022-08-17T03:39:29.980Z,94.30
2022-08-17T03:46:48.904Z,94.30
2022-08-17T03:54:17.179Z,94.50
2022-08-17T04:01:17.920Z,94.50
2022-08-17T04:08:18.418Z,94.70
2022-08-17T04:15:19.201Z,94.80
2022-08-17T04:22:31.938Z,94.80
2022-08-17T04:29:49.970Z,94.90
2022-08-17T04:36:55.094Z,95.00
2022-08-17T04:43:55.955Z,95.10
2022-08-17T04:50:55.986Z,95.20
2022-08-17T04:57:56.575Z,95.40
2022-08-17T05:04:57.065Z,95.50
2022-08-17T05:12:02.149Z,95.60
2022-08-17T05:19:03.221Z,95.70
2022-08-17T05:26:04.151Z,95.80
2022-08-17T05:33:13.687Z,95.70
2022-08-17T05:40:14.544Z,95.80
2022-08-17T05:47:14.715Z,95.70
2022-08-17T05:54:18.032Z,95.70
2022-08-17T06:01:28.451Z,95.60
2022-08-17T06:08:53.939Z,95.60
2022-08-17T06:16:33.247Z,95.70
2022-08-17T06:23:43.301Z,96.40
2022-08-17T06:31:00.706Z,96.00
2022-08-17T06:38:37.934Z,96.00
2022-08-17T06:45:49.148Z,95.90
2022-08-17T06:53:11.654Z,95.90
2022-08-17T07:00:16.929Z,95.90
2022-08-17T07:07:39.302Z,95.80
2022-08-17T07:14:43.761Z,95.50
2022-08-17T07:22:03.650Z,95.50
2022-08-17T07:29:05.873Z,95.50
2022-08-17T07:36:29.586Z,95.80
2022-08-17T07:43:39.659Z,96.00
2022-08-17T07:50:40.583Z,96.10
2022-08-17T07:57:40.816Z,96.20
2022-08-17T08:05:03.589Z,96.30
2022-08-17T08:12:34.633Z,96.30
2022-08-17T08:19:35.270Z,96.20
2022-08-17T08:26:47.363Z,96.10
2022-08-17T08:34:00.953Z,96.20
2022-08-17T08:41:51.958Z,96.40
2022-08-17T08:49:18.358Z,96.60
2022-08-17T08:57:21.479Z,96.90
2022-08-17T09:05:02.797Z,96.90
2022-08-17T09:12:20.959Z,97.00
2022-08-17T09:19:58.743Z,97.30
2022-08-17T09:27:02.360Z,97.60
2022-08-17T09:34:12.538Z,97.70
2022-08-17T09:41:31.251Z,97.60
2022-08-17T09:48:39.589Z,97.60
2022-08-17T09:56:01.095Z,97.60
2022-08-17T10:03:09.480Z,97.80
2022-08-17T10:10:19.513Z,97.90
2022-08-17T10:17:34.490Z,97.90
2022-08-17T10:25:22.988Z,98.40
2022-08-17T10:32:32.619Z,99.00
2022-08-17T10:39:50.497Z,99.90
2022-08-17T10:47:15.300Z,99.90
2022-08-17T10:54:46.799Z,99.90
2022-08-17T11:02:01.092Z,99.90
2022-08-17T11:09:20.087Z,99.90
2022-08-17T11:16:39.015Z,99.90
2022-08-17T11:24:10.322Z,99.90
2022-08-17T11:31:38.940Z,99.90
2022-08-17T11:39:01.386Z,99.90
2022-08-17T11:46:07.362Z,99.90
2022-08-17T11:53:27.482Z,99.90
2022-08-17T12:00:49.752Z,99.90
2022-08-17T12:08:04.132Z,99.80
2022-08-17T12:15:11.764Z,99.90
2022-08-17T12:22:26.612Z,99.70
2022-08-17T12:29:35.848Z,99.20
2022-08-17T12:36:41.223Z,98.70
2022-08-17T12:43:41.370Z,98.50
2022-08-17T12:50:44.965Z,98.50
2022-08-17T12:57:49.288Z,98.80
2022-08-17T13:04:50.308Z,98.50
2022-08-17T13:11:55.231Z,97.60
2022-08-17T13:19:07.769Z,97.70
2022-08-17T13:26:15.649Z,97.20
2022-08-17T13:33:44.751Z,97.10
2022-08-17T13:40:52.880Z,96.50
2022-08-17T13:48:13.706Z,97.20
2022-08-17T13:55:21.794Z,97.80
2022-08-17T14:02:26.068Z,97.50
2022-08-17T14:09:37.246Z,97.20
2022-08-17T14:16:41.635Z,96.90
2022-08-17T14:23:43.818Z,96.10
2022-08-17T14:30:55.952Z,96.10
2022-08-17T14:37:56.185Z,96.50
2022-08-17T14:44:59.931Z,97.10
2022-08-17T14:52:01.281Z,97.80
2022-08-17T14:59:01.576Z,98.30
2022-08-17T15:06:02.819Z,98.50
2022-08-17T15:13:03.042Z,98.60
2022-08-17T15:20:05.575Z,98.60
2022-08-17T15:27:06.397Z,98.40
2022-08-17T15:34:07.942Z,98.50
2022-08-17T15:41:14.997Z,98.50
2022-08-17T15:48:15.441Z,98.00
2022-08-17T15:55:17.181Z,96.90
2022-08-17T16:03:13.615Z,96.70
2022-08-17T16:09:45.437Z,95.90
2022-08-17T16:16:45.860Z,95.40
2022-08-17T16:23:49.093Z,95.70
2022-08-17T16:30:49.492Z,95.20
2022-08-17T16:37:50.143Z,95.10
2022-08-17T16:44:53.962Z,94.50
2022-08-17T16:52:00.353Z,94.50
2022-08-17T16:59:07.347Z,94.80
2022-08-17T17:06:38.005Z,95.50
2022-08-17T17:13:49.348Z,95.80
2022-08-17T17:20:55.497Z,95.70
2022-08-17T17:28:14.129Z,96.00
2022-08-17T17:35:32.616Z,96.20
2022-08-17T17:42:37.701Z,96.30
2022-08-17T17:49:44.387Z,96.40
2022-08-17T17:57:15.902Z,96.50
2022-08-17T18:04:29.640Z,96.60
2022-08-17T18:11:51.510Z,96.40
2022-08-17T18:18:52.747Z,96.50
2022-08-17T18:25:54.500Z,96.50
2022-08-17T18:33:14.966Z,96.80
2022-08-17T18:40:30.236Z,97.20
2022-08-17T18:47:30.685Z,97.90
2022-08-17T18:54:31.435Z,98.10
2022-08-17T19:02:15.516Z,98.60
2022-08-17T19:09:32.546Z,98.50
2022-08-17T19:16:55.489Z,98.60
2022-08-17T19:24:19.237Z,98.80
2022-08-17T19:31:30.597Z,98.90
2022-08-17T19:38:45.454Z,99.00
2022-08-17T19:46:25.971Z,99.20
2022-08-17T19:54:03.941Z,99.30
2022-08-17T20:00:59.196Z,99.70
2022-08-17T20:08:14.865Z,99.90
2022-08-17T20:15:43.082Z,99.90
2022-08-17T20:23:17.124Z,99.90
2022-08-17T20:30:23.223Z,99.90
2022-08-17T20:37:23.546Z,99.90
2022-08-17T20:44:43.504Z,99.90
2022-08-17T20:52:09.149Z,99.90
2022-08-17T20:59:25.550Z,99.90
2022-08-17T21:06:26.376Z,99.90
2022-08-17T21:13:56.457Z,99.90
2022-08-17T21:21:12.993Z,99.90
2022-08-17T21:28:34.286Z,99.90
2022-08-17T21:35:50.100Z,99.90
2022-08-17T21:42:55.483Z,99.90
2022-08-17T21:50:13.110Z,99.90
2022-08-17T21:57:23.226Z,99.90
2022-08-17T22:04:29.325Z,99.90
2022-08-17T22:11:31.481Z,99.90
2022-08-17T22:18:32.698Z,99.90
2022-08-17T22:25:40.869Z,99.90
2022-08-17T22:32:45.109Z,99.90
2022-08-17T22:39:45.910Z,99.90
2022-08-17T22:46:52.261Z,99.90
2022-08-17T22:54:20.623Z,99.90
2022-08-17T23:01:31.613Z,99.90
2022-08-17T23:08:35.635Z,99.90
2022-08-17T23:15:37.019Z,99.90
2022-08-17T23:22:51.352Z,99.90
2022-08-17T23:29:55.015Z,99.90
2022-08-17T23:36:56.069Z,99.90
2022-08-17T23:43:57.195Z,99.90
2022-08-17T23:50:57.705Z,99.90
2022-08-17T23:58:05.490Z,99.90
